sensor_id;sensor_type;location;lat;lon;timestamp;P1;durP1;ratioP1;P2;durP2;ratioP2
18997;SDS011;9632;51.018;4.284;2023-07-13T00:01:50;4.35;;;1.10;;
18997;SDS011;9632;51.018;4.284;2023-07-13T00:04:19;7.53;;;1.60;;
18997;SDS011;9632;51.018;4.284;2023-07-13T00:06:48;6.35;;;1.30;;
18997;SDS011;9632;51.018;4.284;2023-07-13T00:09:14;9.63;;;1.77;;
18997;SDS011;9632;51.018;4.284;2023-07-13T00:11:41;6.22;;;1.40;;
18997;SDS011;9632;51.018;4.284;2023-07-13T00:14:08;5.97;;;1.20;;
18997;SDS011;9632;51.018;4.284;2023-07-13T00:16:35;6.75;;;1.42;;
18997;SDS011;9632;51.018;4.284;2023-07-13T00:19:02;9.45;;;1.45;;
18997;SDS011;9632;51.018;4.284;2023-07-13T00:21:28;5.68;;;1.30;;
18997;SDS011;9632;51.018;4.284;2023-07-13T00:23:54;4.30;;;1.08;;
18997;SDS011;9632;51.018;4.284;2023-07-13T00:26:19;6.88;;;1.10;;
18997;SDS011;9632;51.018;4.284;2023-07-13T00:28:45;6.97;;;1.70;;
18997;SDS011;9632;51.018;4.284;2023-07-13T00:31:11;2.92;;;0.90;;
18997;SDS011;9632;51.018;4.284;2023-07-13T00:33:39;5.80;;;1.15;;
18997;SDS011;9632;51.018;4.284;2023-07-13T00:36:05;4.40;;;1.10;;
18997;SDS011;9632;51.018;4.284;2023-07-13T00:38:31;3.13;;;1.00;;
18997;SDS011;9632;51.018;4.284;2023-07-13T00:40:56;7.15;;;1.13;;
18997;SDS011;9632;51.018;4.284;2023-07-13T00:43:23;3.83;;;0.98;;
18997;SDS011;9632;51.018;4.284;2023-07-13T00:48:21;5.47;;;1.10;;
18997;SDS011;9632;51.018;4.284;2023-07-13T00:50:50;5.00;;;1.02;;
18997;SDS011;9632;51.018;4.284;2023-07-13T00:53:20;6.38;;;1.33;;
18997;SDS011;9632;51.018;4.284;2023-07-13T00:55:49;12.73;;;1.70;;
18997;SDS011;9632;51.018;4.284;2023-07-13T00:58:16;7.75;;;1.23;;
18997;SDS011;9632;51.018;4.284;2023-07-13T01:00:42;4.43;;;1.25;;
18997;SDS011;9632;51.018;4.284;2023-07-13T01:03:08;5.43;;;1.33;;
18997;SDS011;9632;51.018;4.284;2023-07-13T01:05:35;7.22;;;1.25;;
18997;SDS011;9632;51.018;4.284;2023-07-13T01:08:02;2.92;;;1.00;;
18997;SDS011;9632;51.018;4.284;2023-07-13T01:10:30;6.80;;;1.10;;
18997;SDS011;9632;51.018;4.284;2023-07-13T01:13:02;4.95;;;1.25;;
18997;SDS011;9632;51.018;4.284;2023-07-13T01:18:09;7.05;;;1.00;;
18997;SDS011;9632;51.018;4.284;2023-07-13T01:20:37;7.45;;;1.48;;
18997;SDS011;9632;51.018;4.284;2023-07-13T01:23:09;4.05;;;1.20;;
18997;SDS011;9632;51.018;4.284;2023-07-13T01:25:38;8.75;;;1.58;;
18997;SDS011;9632;51.018;4.284;2023-07-13T01:28:05;5.32;;;1.20;;
18997;SDS011;9632;51.018;4.284;2023-07-13T01:30:31;3.97;;;1.00;;
18997;SDS011;9632;51.018;4.284;2023-07-13T01:32:57;6.18;;;1.30;;
18997;SDS011;9632;51.018;4.284;2023-07-13T01:35:23;6.38;;;1.10;;
18997;SDS011;9632;51.018;4.284;2023-07-13T01:37:52;4.43;;;1.10;;
18997;SDS011;9632;51.018;4.284;2023-07-13T01:40:18;4.32;;;1.08;;
18997;SDS011;9632;51.018;4.284;2023-07-13T01:42:43;2.40;;;0.88;;
18997;SDS011;9632;51.018;4.284;2023-07-13T01:45:09;4.18;;;1.02;;
18997;SDS011;9632;51.018;4.284;2023-07-13T01:47:35;5.57;;;1.00;;
18997;SDS011;9632;51.018;4.284;2023-07-13T01:50:00;3.95;;;1.20;;
18997;SDS011;9632;51.018;4.284;2023-07-13T01:52:26;6.57;;;1.48;;
18997;SDS011;9632;51.018;4.284;2023-07-13T01:54:52;7.13;;;1.20;;
18997;SDS011;9632;51.018;4.284;2023-07-13T01:57:17;3.95;;;1.42;;
18997;SDS011;9632;51.018;4.284;2023-07-13T01:59:43;6.00;;;1.30;;
18997;SDS011;9632;51.018;4.284;2023-07-13T02:02:08;4.22;;;1.15;;
18997;SDS011;9632;51.018;4.284;2023-07-13T02:04:34;7.90;;;1.70;;
18997;SDS011;9632;51.018;4.284;2023-07-13T02:07:01;5.07;;;1.10;;
18997;SDS011;9632;51.018;4.284;2023-07-13T02:09:27;5.05;;;1.35;;
18997;SDS011;9632;51.018;4.284;2023-07-13T02:11:52;6.88;;;1.30;;
18997;SDS011;9632;51.018;4.284;2023-07-13T02:14:18;6.07;;;1.10;;
18997;SDS011;9632;51.018;4.284;2023-07-13T02:16:44;7.85;;;1.45;;
18997;SDS011;9632;51.018;4.284;2023-07-13T02:19:09;12.10;;;1.80;;
18997;SDS011;9632;51.018;4.284;2023-07-13T02:21:35;4.95;;;1.35;;
18997;SDS011;9632;51.018;4.284;2023-07-13T02:24:00;7.22;;;1.67;;
18997;SDS011;9632;51.018;4.284;2023-07-13T02:26:26;8.95;;;1.52;;
18997;SDS011;9632;51.018;4.284;2023-07-13T02:28:52;5.28;;;1.30;;
18997;SDS011;9632;51.018;4.284;2023-07-13T02:31:18;6.60;;;1.70;;
18997;SDS011;9632;51.018;4.284;2023-07-13T02:33:44;6.82;;;1.45;;
18997;SDS011;9632;51.018;4.284;2023-07-13T02:36:10;10.07;;;1.80;;
18997;SDS011;9632;51.018;4.284;2023-07-13T02:38:37;7.55;;;1.38;;
18997;SDS011;9632;51.018;4.284;2023-07-13T02:41:06;7.93;;;1.83;;
18997;SDS011;9632;51.018;4.284;2023-07-13T02:43:33;5.30;;;1.58;;
18997;SDS011;9632;51.018;4.284;2023-07-13T02:46:00;11.45;;;1.95;;
18997;SDS011;9632;51.018;4.284;2023-07-13T02:48:32;11.60;;;2.28;;
18997;SDS011;9632;51.018;4.284;2023-07-13T02:50:58;9.57;;;1.55;;
18997;SDS011;9632;51.018;4.284;2023-07-13T02:53:24;7.60;;;1.70;;
18997;SDS011;9632;51.018;4.284;2023-07-13T02:55:49;7.53;;;1.80;;
18997;SDS011;9632;51.018;4.284;2023-07-13T02:58:15;6.13;;;1.55;;
18997;SDS011;9632;51.018;4.284;2023-07-13T03:00:44;11.43;;;1.80;;
18997;SDS011;9632;51.018;4.284;2023-07-13T03:03:11;10.63;;;2.20;;
18997;SDS011;9632;51.018;4.284;2023-07-13T03:05:39;10.20;;;1.65;;
18997;SDS011;9632;51.018;4.284;2023-07-13T03:08:07;10.18;;;2.00;;
18997;SDS011;9632;51.018;4.284;2023-07-13T03:10:33;12.15;;;1.98;;
18997;SDS011;9632;51.018;4.284;2023-07-13T03:12:58;8.40;;;1.58;;
18997;SDS011;9632;51.018;4.284;2023-07-13T03:15:24;12.00;;;1.60;;
18997;SDS011;9632;51.018;4.284;2023-07-13T03:17:50;9.77;;;2.20;;
18997;SDS011;9632;51.018;4.284;2023-07-13T03:20:15;10.57;;;2.10;;
18997;SDS011;9632;51.018;4.284;2023-07-13T03:22:41;11.90;;;2.10;;
18997;SDS011;9632;51.018;4.284;2023-07-13T03:25:07;12.70;;;2.10;;
18997;SDS011;9632;51.018;4.284;2023-07-13T03:27:33;6.85;;;1.60;;
18997;SDS011;9632;51.018;4.284;2023-07-13T03:29:59;8.52;;;1.80;;
18997;SDS011;9632;51.018;4.284;2023-07-13T03:32:24;9.10;;;1.70;;
18997;SDS011;9632;51.018;4.284;2023-07-13T03:34:50;10.00;;;2.10;;
18997;SDS011;9632;51.018;4.284;2023-07-13T03:37:16;10.48;;;2.13;;
18997;SDS011;9632;51.018;4.284;2023-07-13T03:39:41;11.77;;;2.08;;
18997;SDS011;9632;51.018;4.284;2023-07-13T03:42:07;11.27;;;2.15;;
18997;SDS011;9632;51.018;4.284;2023-07-13T03:44:33;12.18;;;2.40;;
18997;SDS011;9632;51.018;4.284;2023-07-13T03:47:00;10.68;;;1.90;;
18997;SDS011;9632;51.018;4.284;2023-07-13T03:49:26;11.73;;;1.88;;
18997;SDS011;9632;51.018;4.284;2023-07-13T03:51:51;7.55;;;1.60;;
18997;SDS011;9632;51.018;4.284;2023-07-13T03:54:17;8.43;;;2.00;;
18997;SDS011;9632;51.018;4.284;2023-07-13T03:56:42;14.73;;;2.20;;
18997;SDS011;9632;51.018;4.284;2023-07-13T03:59:08;8.50;;;1.88;;
18997;SDS011;9632;51.018;4.284;2023-07-13T04:01:34;11.35;;;2.35;;
18997;SDS011;9632;51.018;4.284;2023-07-13T04:03:59;9.25;;;1.90;;
18997;SDS011;9632;51.018;4.284;2023-07-13T04:06:27;12.93;;;2.58;;
18997;SDS011;9632;51.018;4.284;2023-07-13T04:08:54;10.43;;;2.42;;
18997;SDS011;9632;51.018;4.284;2023-07-13T04:11:24;11.02;;;1.95;;
18997;SDS011;9632;51.018;4.284;2023-07-13T04:13:52;15.75;;;2.33;;
18997;SDS011;9632;51.018;4.284;2023-07-13T04:16:18;13.25;;;2.05;;
18997;SDS011;9632;51.018;4.284;2023-07-13T04:18:45;11.68;;;2.08;;
18997;SDS011;9632;51.018;4.284;2023-07-13T04:21:11;11.90;;;2.13;;
18997;SDS011;9632;51.018;4.284;2023-07-13T04:23:37;15.60;;;2.70;;
18997;SDS011;9632;51.018;4.284;2023-07-13T04:26:03;13.43;;;2.35;;
18997;SDS011;9632;51.018;4.284;2023-07-13T04:28:29;9.65;;;1.90;;
18997;SDS011;9632;51.018;4.284;2023-07-13T04:30:55;12.85;;;2.45;;
18997;SDS011;9632;51.018;4.284;2023-07-13T04:33:21;14.82;;;2.58;;
18997;SDS011;9632;51.018;4.284;2023-07-13T04:35:51;11.48;;;2.30;;
18997;SDS011;9632;51.018;4.284;2023-07-13T04:38:21;11.50;;;2.13;;
18997;SDS011;9632;51.018;4.284;2023-07-13T04:40:49;13.70;;;2.35;;
18997;SDS011;9632;51.018;4.284;2023-07-13T04:43:16;16.20;;;2.58;;
18997;SDS011;9632;51.018;4.284;2023-07-13T04:45:42;14.70;;;2.50;;
18997;SDS011;9632;51.018;4.284;2023-07-13T04:48:08;18.98;;;2.38;;
18997;SDS011;9632;51.018;4.284;2023-07-13T04:50:36;15.23;;;2.40;;
18997;SDS011;9632;51.018;4.284;2023-07-13T04:53:02;13.27;;;2.65;;
18997;SDS011;9632;51.018;4.284;2023-07-13T04:55:29;16.10;;;2.22;;
18997;SDS011;9632;51.018;4.284;2023-07-13T04:57:55;10.48;;;2.67;;
18997;SDS011;9632;51.018;4.284;2023-07-13T05:00:23;15.32;;;2.70;;
18997;SDS011;9632;51.018;4.284;2023-07-13T05:02:49;13.75;;;2.28;;
18997;SDS011;9632;51.018;4.284;2023-07-13T05:05:15;14.98;;;2.50;;
18997;SDS011;9632;51.018;4.284;2023-07-13T05:07:40;10.07;;;2.47;;
18997;SDS011;9632;51.018;4.284;2023-07-13T05:10:06;13.63;;;2.70;;
18997;SDS011;9632;51.018;4.284;2023-07-13T05:12:32;20.20;;;3.17;;
18997;SDS011;9632;51.018;4.284;2023-07-13T05:14:58;17.73;;;2.63;;
18997;SDS011;9632;51.018;4.284;2023-07-13T05:17:24;11.80;;;2.70;;
18997;SDS011;9632;51.018;4.284;2023-07-13T05:19:49;11.13;;;2.38;;
18997;SDS011;9632;51.018;4.284;2023-07-13T05:22:15;14.77;;;2.70;;
18997;SDS011;9632;51.018;4.284;2023-07-13T05:24:41;12.32;;;2.20;;
18997;SDS011;9632;51.018;4.284;2023-07-13T05:27:06;11.90;;;2.13;;
18997;SDS011;9632;51.018;4.284;2023-07-13T05:29:32;14.27;;;2.60;;
18997;SDS011;9632;51.018;4.284;2023-07-13T05:31:57;15.32;;;2.95;;
18997;SDS011;9632;51.018;4.284;2023-07-13T05:34:23;14.23;;;2.42;;
18997;SDS011;9632;51.018;4.284;2023-07-13T05:36:49;14.30;;;2.80;;
18997;SDS011;9632;51.018;4.284;2023-07-13T05:39:15;15.02;;;2.78;;
18997;SDS011;9632;51.018;4.284;2023-07-13T05:41:41;20.95;;;2.65;;
18997;SDS011;9632;51.018;4.284;2023-07-13T05:44:07;15.70;;;2.67;;
18997;SDS011;9632;51.018;4.284;2023-07-13T05:46:32;14.05;;;2.30;;
18997;SDS011;9632;51.018;4.284;2023-07-13T05:48:58;15.63;;;2.72;;
18997;SDS011;9632;51.018;4.284;2023-07-13T05:51:24;15.20;;;2.45;;
18997;SDS011;9632;51.018;4.284;2023-07-13T05:53:50;13.65;;;2.55;;
18997;SDS011;9632;51.018;4.284;2023-07-13T05:56:15;14.50;;;2.55;;
18997;SDS011;9632;51.018;4.284;2023-07-13T05:58:41;9.50;;;2.42;;
18997;SDS011;9632;51.018;4.284;2023-07-13T06:01:09;16.35;;;2.85;;
18997;SDS011;9632;51.018;4.284;2023-07-13T06:03:36;12.88;;;2.65;;
18997;SDS011;9632;51.018;4.284;2023-07-13T06:06:05;15.52;;;2.80;;
18997;SDS011;9632;51.018;4.284;2023-07-13T06:08:32;19.77;;;3.17;;
18997;SDS011;9632;51.018;4.284;2023-07-13T06:11:04;13.13;;;2.40;;
18997;SDS011;9632;51.018;4.284;2023-07-13T06:13:32;14.32;;;2.92;;
18997;SDS011;9632;51.018;4.284;2023-07-13T06:15:59;18.88;;;3.60;;
18997;SDS011;9632;51.018;4.284;2023-07-13T06:18:25;13.05;;;2.50;;
18997;SDS011;9632;51.018;4.284;2023-07-13T06:20:50;19.13;;;3.10;;
18997;SDS011;9632;51.018;4.284;2023-07-13T06:23:16;18.63;;;2.90;;
18997;SDS011;9632;51.018;4.284;2023-07-13T06:25:42;16.27;;;2.90;;
18997;SDS011;9632;51.018;4.284;2023-07-13T06:28:08;17.30;;;2.97;;
18997;SDS011;9632;51.018;4.284;2023-07-13T06:30:34;18.23;;;2.78;;
18997;SDS011;9632;51.018;4.284;2023-07-13T06:32:59;14.43;;;2.78;;
18997;SDS011;9632;51.018;4.284;2023-07-13T06:35:25;13.07;;;2.50;;
18997;SDS011;9632;51.018;4.284;2023-07-13T06:37:51;13.77;;;2.85;;
18997;SDS011;9632;51.018;4.284;2023-07-13T06:40:16;16.98;;;3.00;;
18997;SDS011;9632;51.018;4.284;2023-07-13T06:42:42;15.63;;;2.45;;
18997;SDS011;9632;51.018;4.284;2023-07-13T06:45:08;21.15;;;3.30;;
18997;SDS011;9632;51.018;4.284;2023-07-13T06:47:34;12.80;;;2.30;;
18997;SDS011;9632;51.018;4.284;2023-07-13T06:50:00;16.58;;;3.40;;
18997;SDS011;9632;51.018;4.284;2023-07-13T06:52:26;17.20;;;2.53;;
18997;SDS011;9632;51.018;4.284;2023-07-13T06:54:51;25.27;;;3.05;;
18997;SDS011;9632;51.018;4.284;2023-07-13T06:57:17;17.40;;;2.60;;
18997;SDS011;9632;51.018;4.284;2023-07-13T06:59:42;13.13;;;2.58;;
18997;SDS011;9632;51.018;4.284;2023-07-13T07:02:09;13.93;;;2.75;;
18997;SDS011;9632;51.018;4.284;2023-07-13T07:04:35;13.27;;;2.58;;
18997;SDS011;9632;51.018;4.284;2023-07-13T07:07:01;15.35;;;2.88;;
18997;SDS011;9632;51.018;4.284;2023-07-13T07:09:27;19.27;;;3.33;;
18997;SDS011;9632;51.018;4.284;2023-07-13T07:11:54;19.10;;;2.92;;
18997;SDS011;9632;51.018;4.284;2023-07-13T07:14:20;16.23;;;2.70;;
18997;SDS011;9632;51.018;4.284;2023-07-13T07:16:45;17.60;;;3.28;;
18997;SDS011;9632;51.018;4.284;2023-07-13T07:19:11;18.05;;;2.88;;
18997;SDS011;9632;51.018;4.284;2023-07-13T07:21:37;15.93;;;3.00;;
18997;SDS011;9632;51.018;4.284;2023-07-13T07:24:02;16.73;;;2.55;;
18997;SDS011;9632;51.018;4.284;2023-07-13T07:26:29;15.45;;;3.05;;
18997;SDS011;9632;51.018;4.284;2023-07-13T07:28:55;8.82;;;2.25;;
18997;SDS011;9632;51.018;4.284;2023-07-13T07:31:21;18.48;;;2.92;;
18997;SDS011;9632;51.018;4.284;2023-07-13T07:33:47;16.20;;;2.50;;
18997;SDS011;9632;51.018;4.284;2023-07-13T07:36:14;15.48;;;2.80;;
18997;SDS011;9632;51.018;4.284;2023-07-13T07:38:41;15.70;;;2.80;;
18997;SDS011;9632;51.018;4.284;2023-07-13T07:41:07;13.30;;;2.80;;
18997;SDS011;9632;51.018;4.284;2023-07-13T07:43:33;13.05;;;2.60;;
18997;SDS011;9632;51.018;4.284;2023-07-13T07:45:59;16.45;;;2.65;;
18997;SDS011;9632;51.018;4.284;2023-07-13T07:48:25;17.65;;;2.63;;
18997;SDS011;9632;51.018;4.284;2023-07-13T07:50:50;18.50;;;2.40;;
18997;SDS011;9632;51.018;4.284;2023-07-13T07:53:16;13.35;;;2.70;;
18997;SDS011;9632;51.018;4.284;2023-07-13T07:55:41;15.23;;;2.80;;
18997;SDS011;9632;51.018;4.284;2023-07-13T07:58:07;14.15;;;2.65;;
18997;SDS011;9632;51.018;4.284;2023-07-13T08:00:33;16.30;;;2.75;;
18997;SDS011;9632;51.018;4.284;2023-07-13T08:03:00;12.73;;;2.50;;
18997;SDS011;9632;51.018;4.284;2023-07-13T08:05:26;13.18;;;2.45;;
18997;SDS011;9632;51.018;4.284;2023-07-13T08:07:52;11.40;;;2.45;;
18997;SDS011;9632;51.018;4.284;2023-07-13T08:10:18;12.73;;;2.50;;
18997;SDS011;9632;51.018;4.284;2023-07-13T08:12:43;14.85;;;2.88;;
18997;SDS011;9632;51.018;4.284;2023-07-13T08:15:11;11.35;;;2.60;;
18997;SDS011;9632;51.018;4.284;2023-07-13T08:17:39;14.02;;;2.92;;
18997;SDS011;9632;51.018;4.284;2023-07-13T08:20:04;14.10;;;2.45;;
18997;SDS011;9632;51.018;4.284;2023-07-13T08:22:31;10.30;;;2.10;;
18997;SDS011;9632;51.018;4.284;2023-07-13T08:24:57;14.75;;;2.42;;
18997;SDS011;9632;51.018;4.284;2023-07-13T08:27:23;12.70;;;2.35;;
18997;SDS011;9632;51.018;4.284;2023-07-13T08:29:50;12.57;;;2.70;;
18997;SDS011;9632;51.018;4.284;2023-07-13T08:32:17;10.40;;;2.20;;
18997;SDS011;9632;51.018;4.284;2023-07-13T08:34:44;10.77;;;2.40;;
18997;SDS011;9632;51.018;4.284;2023-07-13T08:37:10;17.63;;;2.42;;
18997;SDS011;9632;51.018;4.284;2023-07-13T08:39:36;11.90;;;2.35;;
18997;SDS011;9632;51.018;4.284;2023-07-13T08:42:05;12.80;;;2.13;;
18997;SDS011;9632;51.018;4.284;2023-07-13T08:44:44;8.07;;;1.88;;
18997;SDS011;9632;51.018;4.284;2023-07-13T08:47:26;9.13;;;1.83;;
18997;SDS011;9632;51.018;4.284;2023-07-13T08:49:54;11.95;;;2.10;;
18997;SDS011;9632;51.018;4.284;2023-07-13T08:52:32;9.93;;;2.25;;
18997;SDS011;9632;51.018;4.284;2023-07-13T08:55:03;12.43;;;2.25;;
18997;SDS011;9632;51.018;4.284;2023-07-13T08:57:42;12.65;;;2.20;;
18997;SDS011;9632;51.018;4.284;2023-07-13T09:00:11;10.57;;;2.05;;
18997;SDS011;9632;51.018;4.284;2023-07-13T09:02:45;9.45;;;1.88;;
18997;SDS011;9632;51.018;4.284;2023-07-13T09:05:52;11.70;;;2.20;;
18997;SDS011;9632;51.018;4.284;2023-07-13T09:10:49;8.05;;;1.77;;
18997;SDS011;9632;51.018;4.284;2023-07-13T09:15:48;8.38;;;1.90;;
18997;SDS011;9632;51.018;4.284;2023-07-13T09:21:02;9.20;;;1.83;;
18997;SDS011;9632;51.018;4.284;2023-07-13T09:23:37;10.75;;;1.90;;
18997;SDS011;9632;51.018;4.284;2023-07-13T09:28:44;9.43;;;1.65;;
18997;SDS011;9632;51.018;4.284;2023-07-13T09:31:32;10.38;;;1.88;;
18997;SDS011;9632;51.018;4.284;2023-07-13T09:34:01;8.18;;;1.45;;
18997;SDS011;9632;51.018;4.284;2023-07-13T09:36:28;9.93;;;1.75;;
18997;SDS011;9632;51.018;4.284;2023-07-13T09:44:08;9.95;;;1.70;;
18997;SDS011;9632;51.018;4.284;2023-07-13T09:46:34;9.07;;;1.75;;
18997;SDS011;9632;51.018;4.284;2023-07-13T09:49:00;11.70;;;2.00;;
18997;SDS011;9632;51.018;4.284;2023-07-13T09:51:26;9.95;;;1.92;;
18997;SDS011;9632;51.018;4.284;2023-07-13T09:53:52;16.02;;;1.70;;
18997;SDS011;9632;51.018;4.284;2023-07-13T09:56:22;12.20;;;1.90;;
18997;SDS011;9632;51.018;4.284;2023-07-13T09:58:51;6.75;;;1.70;;
18997;SDS011;9632;51.018;4.284;2023-07-13T10:01:30;6.95;;;1.70;;
18997;SDS011;9632;51.018;4.284;2023-07-13T10:03:58;6.20;;;1.45;;
18997;SDS011;9632;51.018;4.284;2023-07-13T10:06:24;9.07;;;1.63;;
18997;SDS011;9632;51.018;4.284;2023-07-13T10:08:51;7.63;;;1.38;;
18997;SDS011;9632;51.018;4.284;2023-07-13T10:11:27;6.70;;;1.50;;
18997;SDS011;9632;51.018;4.284;2023-07-13T10:16:25;7.47;;;1.80;;
18997;SDS011;9632;51.018;4.284;2023-07-13T10:18:58;7.82;;;1.60;;
18997;SDS011;9632;51.018;4.284;2023-07-13T10:21:28;7.90;;;1.65;;
18997;SDS011;9632;51.018;4.284;2023-07-13T10:24:19;6.22;;;1.42;;
18997;SDS011;9632;51.018;4.284;2023-07-13T10:26:58;6.72;;;1.40;;
18997;SDS011;9632;51.018;4.284;2023-07-13T10:29:29;8.52;;;1.70;;
18997;SDS011;9632;51.018;4.284;2023-07-13T10:32:01;7.88;;;1.60;;
18997;SDS011;9632;51.018;4.284;2023-07-13T10:34:27;6.10;;;1.50;;
18997;SDS011;9632;51.018;4.284;2023-07-13T10:36:53;5.72;;;1.20;;
18997;SDS011;9632;51.018;4.284;2023-07-13T10:39:23;6.93;;;1.60;;
18997;SDS011;9632;51.018;4.284;2023-07-13T10:41:55;7.65;;;1.48;;
18997;SDS011;9632;51.018;4.284;2023-07-13T10:44:28;7.72;;;1.27;;
18997;SDS011;9632;51.018;4.284;2023-07-13T10:46:57;8.60;;;1.60;;
18997;SDS011;9632;51.018;4.284;2023-07-13T10:49:26;9.27;;;1.80;;
18997;SDS011;9632;51.018;4.284;2023-07-13T10:51:54;3.97;;;1.30;;
18997;SDS011;9632;51.018;4.284;2023-07-13T10:59:42;5.60;;;1.45;;
18997;SDS011;9632;51.018;4.284;2023-07-13T11:02:30;4.97;;;1.10;;
18997;SDS011;9632;51.018;4.284;2023-07-13T11:04:56;6.80;;;1.42;;
18997;SDS011;9632;51.018;4.284;2023-07-13T11:07:24;7.50;;;1.70;;
18997;SDS011;9632;51.018;4.284;2023-07-13T11:09:58;11.32;;;1.92;;
18997;SDS011;9632;51.018;4.284;2023-07-13T11:12:48;9.88;;;1.60;;
18997;SDS011;9632;51.018;4.284;2023-07-13T11:15:30;7.18;;;2.00;;
18997;SDS011;9632;51.018;4.284;2023-07-13T11:18:19;9.38;;;1.75;;
18997;SDS011;9632;51.018;4.284;2023-07-13T11:20:47;10.18;;;1.95;;
18997;SDS011;9632;51.018;4.284;2023-07-13T11:25:41;8.15;;;1.95;;
18997;SDS011;9632;51.018;4.284;2023-07-13T11:30:40;6.18;;;1.48;;
18997;SDS011;9632;51.018;4.284;2023-07-13T11:33:20;7.28;;;1.40;;
18997;SDS011;9632;51.018;4.284;2023-07-13T11:38:35;5.28;;;1.42;;
18997;SDS011;9632;51.018;4.284;2023-07-13T11:41:04;8.65;;;1.50;;
18997;SDS011;9632;51.018;4.284;2023-07-13T11:43:37;10.07;;;1.73;;
18997;SDS011;9632;51.018;4.284;2023-07-13T11:46:13;12.93;;;1.90;;
18997;SDS011;9632;51.018;4.284;2023-07-13T11:48:46;10.73;;;1.73;;
18997;SDS011;9632;51.018;4.284;2023-07-13T11:51:23;9.88;;;2.17;;
18997;SDS011;9632;51.018;4.284;2023-07-13T11:54:04;5.38;;;1.70;;
18997;SDS011;9632;51.018;4.284;2023-07-13T11:56:59;8.20;;;1.75;;
18997;SDS011;9632;51.018;4.284;2023-07-13T11:59:26;6.13;;;1.67;;
18997;SDS011;9632;51.018;4.284;2023-07-13T12:01:54;14.73;;;2.47;;
18997;SDS011;9632;51.018;4.284;2023-07-13T12:04:24;11.57;;;2.10;;
18997;SDS011;9632;51.018;4.284;2023-07-13T12:06:56;7.82;;;1.80;;
18997;SDS011;9632;51.018;4.284;2023-07-13T12:09:25;4.93;;;1.42;;
18997;SDS011;9632;51.018;4.284;2023-07-13T12:11:51;5.55;;;1.45;;
18997;SDS011;9632;51.018;4.284;2023-07-13T12:14:18;5.88;;;1.35;;
18997;SDS011;9632;51.018;4.284;2023-07-13T12:16:45;6.93;;;1.83;;
18997;SDS011;9632;51.018;4.284;2023-07-13T12:19:18;5.45;;;1.40;;
18997;SDS011;9632;51.018;4.284;2023-07-13T12:21:46;7.53;;;1.85;;
18997;SDS011;9632;51.018;4.284;2023-07-13T12:24:17;6.28;;;1.30;;
18997;SDS011;9632;51.018;4.284;2023-07-13T12:26:44;4.00;;;1.40;;
18997;SDS011;9632;51.018;4.284;2023-07-13T12:29:15;4.90;;;1.58;;
18997;SDS011;9632;51.018;4.284;2023-07-13T12:31:43;4.65;;;1.38;;
18997;SDS011;9632;51.018;4.284;2023-07-13T12:34:12;3.25;;;1.33;;
18997;SDS011;9632;51.018;4.284;2023-07-13T12:41:44;6.55;;;1.52;;
18997;SDS011;9632;51.018;4.284;2023-07-13T12:44:11;3.78;;;1.48;;
18997;SDS011;9632;51.018;4.284;2023-07-13T12:46:39;4.78;;;1.38;;
18997;SDS011;9632;51.018;4.284;2023-07-13T12:49:16;6.38;;;1.40;;
18997;SDS011;9632;51.018;4.284;2023-07-13T12:51:49;3.63;;;1.40;;
18997;SDS011;9632;51.018;4.284;2023-07-13T12:54:17;3.20;;;1.23;;
18997;SDS011;9632;51.018;4.284;2023-07-13T12:56:44;6.57;;;1.45;;
18997;SDS011;9632;51.018;4.284;2023-07-13T12:59:18;3.30;;;1.27;;
18997;SDS011;9632;51.018;4.284;2023-07-13T13:01:45;4.10;;;1.30;;
18997;SDS011;9632;51.018;4.284;2023-07-13T13:04:12;6.65;;;1.42;;
18997;SDS011;9632;51.018;4.284;2023-07-13T13:06:38;4.22;;;1.30;;
18997;SDS011;9632;51.018;4.284;2023-07-13T13:09:09;4.35;;;1.25;;
18997;SDS011;9632;51.018;4.284;2023-07-13T13:11:38;3.03;;;1.48;;
18997;SDS011;9632;51.018;4.284;2023-07-13T13:14:04;5.05;;;1.40;;
18997;SDS011;9632;51.018;4.284;2023-07-13T13:16:31;4.43;;;1.30;;
18997;SDS011;9632;51.018;4.284;2023-07-13T13:19:23;4.03;;;1.55;;
18997;SDS011;9632;51.018;4.284;2023-07-13T13:21:51;5.45;;;1.20;;
18997;SDS011;9632;51.018;4.284;2023-07-13T13:24:21;4.50;;;1.23;;
18997;SDS011;9632;51.018;4.284;2023-07-13T13:26:49;4.82;;;1.45;;
18997;SDS011;9632;51.018;4.284;2023-07-13T13:29:21;4.78;;;1.40;;
18997;SDS011;9632;51.018;4.284;2023-07-13T13:31:49;4.25;;;1.10;;
18997;SDS011;9632;51.018;4.284;2023-07-13T13:34:17;5.35;;;1.23;;
18997;SDS011;9632;51.018;4.284;2023-07-13T13:36:46;4.40;;;1.48;;
18997;SDS011;9632;51.018;4.284;2023-07-13T13:39:19;4.50;;;1.23;;
18997;SDS011;9632;51.018;4.284;2023-07-13T13:41:47;7.38;;;1.50;;
18997;SDS011;9632;51.018;4.284;2023-07-13T13:44:18;4.10;;;1.30;;
18997;SDS011;9632;51.018;4.284;2023-07-13T13:46:45;4.05;;;1.30;;
18997;SDS011;9632;51.018;4.284;2023-07-13T13:49:17;3.83;;;1.20;;
18997;SDS011;9632;51.018;4.284;2023-07-13T13:51:49;5.60;;;1.30;;
18997;SDS011;9632;51.018;4.284;2023-07-13T13:54:16;5.30;;;1.40;;
18997;SDS011;9632;51.018;4.284;2023-07-13T13:56:43;4.18;;;1.52;;
18997;SDS011;9632;51.018;4.284;2023-07-13T13:59:12;4.10;;;1.50;;
18997;SDS011;9632;51.018;4.284;2023-07-13T14:01:38;3.60;;;1.15;;
18997;SDS011;9632;51.018;4.284;2023-07-13T14:04:05;3.13;;;1.10;;
18997;SDS011;9632;51.018;4.284;2023-07-13T14:06:32;3.95;;;1.00;;
18997;SDS011;9632;51.018;4.284;2023-07-13T14:08:59;4.70;;;1.33;;
18997;SDS011;9632;51.018;4.284;2023-07-13T14:11:25;4.25;;;1.30;;
18997;SDS011;9632;51.018;4.284;2023-07-13T14:13:52;3.15;;;1.00;;
18997;SDS011;9632;51.018;4.284;2023-07-13T14:16:22;3.40;;;1.20;;
18997;SDS011;9632;51.018;4.284;2023-07-13T14:18:52;4.07;;;1.25;;
18997;SDS011;9632;51.018;4.284;2023-07-13T14:21:19;5.38;;;1.25;;
18997;SDS011;9632;51.018;4.284;2023-07-13T14:23:46;6.07;;;1.75;;
18997;SDS011;9632;51.018;4.284;2023-07-13T14:26:17;3.22;;;1.17;;
18997;SDS011;9632;51.018;4.284;2023-07-13T14:28:49;3.60;;;1.30;;
18997;SDS011;9632;51.018;4.284;2023-07-13T14:31:20;2.90;;;1.20;;
18997;SDS011;9632;51.018;4.284;2023-07-13T14:33:47;4.40;;;1.30;;
18997;SDS011;9632;51.018;4.284;2023-07-13T14:36:17;2.78;;;1.02;;
18997;SDS011;9632;51.018;4.284;2023-07-13T14:38:46;3.85;;;1.33;;
18997;SDS011;9632;51.018;4.284;2023-07-13T14:41:11;5.93;;;1.52;;
18997;SDS011;9632;51.018;4.284;2023-07-13T14:43:37;3.85;;;1.33;;
18997;SDS011;9632;51.018;4.284;2023-07-13T14:46:03;3.85;;;1.23;;
18997;SDS011;9632;51.018;4.284;2023-07-13T14:48:29;5.22;;;1.38;;
18997;SDS011;9632;51.018;4.284;2023-07-13T14:50:56;6.63;;;1.10;;
18997;SDS011;9632;51.018;4.284;2023-07-13T14:53:26;4.13;;;1.40;;
18997;SDS011;9632;51.018;4.284;2023-07-13T14:55:52;4.10;;;1.30;;
18997;SDS011;9632;51.018;4.284;2023-07-13T14:58:18;8.48;;;1.20;;
18997;SDS011;9632;51.018;4.284;2023-07-13T15:00:44;4.50;;;1.25;;
18997;SDS011;9632;51.018;4.284;2023-07-13T15:03:18;2.20;;;1.00;;
18997;SDS011;9632;51.018;4.284;2023-07-13T15:05:47;5.15;;;1.10;;
18997;SDS011;9632;51.018;4.284;2023-07-13T15:08:13;2.83;;;1.08;;
18997;SDS011;9632;51.018;4.284;2023-07-13T15:10:40;5.07;;;1.52;;
18997;SDS011;9632;51.018;4.284;2023-07-13T15:15:48;4.55;;;1.30;;
18997;SDS011;9632;51.018;4.284;2023-07-13T15:18:17;3.75;;;1.13;;
18997;SDS011;9632;51.018;4.284;2023-07-13T15:20:44;5.32;;;1.30;;
18997;SDS011;9632;51.018;4.284;2023-07-13T15:23:12;4.20;;;1.23;;
18997;SDS011;9632;51.018;4.284;2023-07-13T15:25:38;3.00;;;1.40;;
18997;SDS011;9632;51.018;4.284;2023-07-13T15:28:05;4.05;;;1.20;;
18997;SDS011;9632;51.018;4.284;2023-07-13T15:30:33;4.47;;;1.40;;
18997;SDS011;9632;51.018;4.284;2023-07-13T15:33:49;3.08;;;0.95;;
18997;SDS011;9632;51.018;4.284;2023-07-13T15:35:51;4.03;;;1.20;;
18997;SDS011;9632;51.018;4.284;2023-07-13T15:38:22;3.13;;;1.17;;
18997;SDS011;9632;51.018;4.284;2023-07-13T15:40:50;3.83;;;1.10;;
18997;SDS011;9632;51.018;4.284;2023-07-13T15:43:17;1.50;;;0.80;;
18997;SDS011;9632;51.018;4.284;2023-07-13T15:45:43;3.28;;;1.02;;